createdAt,value
2019-02-28T00:00:16.860Z,1015.24
2019-02-28T00:01:16.888Z,1015.23
2019-02-28T00:02:21.554Z,1015.22
2019-02-28T00:03:16.962Z,1015.22
2019-02-28T00:04:16.988Z,1015.20
2019-02-28T00:05:17.013Z,1015.18
2019-02-28T00:06:17.004Z,1015.22
2019-02-28T00:07:17.906Z,1015.24
2019-02-28T00:08:17.421Z,1015.23
2019-02-28T00:09:17.150Z,1015.27
2019-02-28T00:10:17.132Z,1015.25
2019-02-28T00:11:17.211Z,1015.26
2019-02-28T00:12:17.263Z,1015.27
2019-02-28T00:13:21.137Z,1015.29
2019-02-28T00:14:17.586Z,1015.33
2019-02-28T00:15:17.345Z,1015.31
2019-02-28T00:16:17.327Z,1015.26
2019-02-28T00:17:17.404Z,1015.29
2019-02-28T00:18:17.737Z,1015.30
2019-02-28T00:19:17.476Z,1015.27
2019-02-28T00:20:17.761Z,1015.28
2019-02-28T00:21:17.829Z,1015.24
2019-02-28T00:22:17.561Z,1015.28
2019-02-28T00:23:19.233Z,1015.23
2019-02-28T00:25:17.685Z,1015.20
2019-02-28T00:26:17.797Z,1015.18
2019-02-28T00:27:20.952Z,1015.19
2019-02-28T00:28:17.761Z,1015.18
2019-02-28T00:29:17.790Z,1015.16
2019-02-28T00:30:17.925Z,1015.18
2019-02-28T00:31:17.950Z,1015.16
2019-02-28T00:32:17.847Z,1015.14
2019-02-28T00:33:17.871Z,1015.15
2019-02-28T00:34:18.247Z,1015.13
2019-02-28T00:35:17.937Z,1015.09
2019-02-28T00:36:19.170Z,1015.10
2019-02-28T00:37:17.996Z,1015.10
2019-02-28T00:38:18.035Z,1015.07
2019-02-28T00:39:18.110Z,1015.07
2019-02-28T00:40:18.090Z,1015.08
2019-02-28T00:41:18.476Z,1015.11
2019-02-28T00:42:18.367Z,1015.08
2019-02-28T00:44:18.276Z,1015.11
2019-02-28T00:45:18.305Z,1015.06
2019-02-28T00:46:18.334Z,1015.13
2019-02-28T00:47:18.666Z,1015.06
2019-02-28T00:48:21.577Z,1015.15
2019-02-28T00:49:18.387Z,1015.15
2019-02-28T00:50:18.408Z,1015.09
2019-02-28T00:51:18.493Z,1015.12
2019-02-28T00:52:18.479Z,1015.14
2019-02-28T00:53:18.556Z,1015.08
2019-02-28T00:54:18.588Z,1015.05
2019-02-28T00:56:18.964Z,1015.01
2019-02-28T00:57:18.687Z,1015.04
2019-02-28T00:58:18.666Z,1015.01
2019-02-28T00:59:18.775Z,1014.99
2019-02-28T01:00:18.827Z,1014.99
2019-02-28T01:01:18.851Z,1014.97
2019-02-28T01:02:19.226Z,1015.02
2019-02-28T01:03:19.186Z,1014.95
2019-02-28T01:04:18.862Z,1015.01
2019-02-28T01:05:18.898Z,1014.97
2019-02-28T01:06:18.975Z,1014.95
2019-02-28T01:07:19.004Z,1014.93
2019-02-28T01:08:21.961Z,1014.90
2019-02-28T01:09:19.069Z,1014.87
2019-02-28T01:10:19.408Z,1014.87
2019-02-28T01:11:19.135Z,1014.85
2019-02-28T01:12:20.180Z,1014.83
2019-02-28T01:13:19.144Z,1014.82
2019-02-28T01:14:19.230Z,1014.80
2019-02-28T01:15:19.258Z,1014.74
2019-02-28T01:16:20.104Z,1014.75
2019-02-28T01:17:19.626Z,1014.75
2019-02-28T01:18:19.304Z,1014.74
2019-02-28T01:19:19.347Z,1014.72
2019-02-28T01:20:19.383Z,1014.66
2019-02-28T01:21:23.654Z,1014.66
2019-02-28T01:22:19.439Z,1014.66
2019-02-28T01:23:19.515Z,1014.63
2019-02-28T01:24:19.851Z,1014.60
2019-02-28T01:25:19.543Z,1014.63
2019-02-28T01:26:19.564Z,1014.63
2019-02-28T01:27:21.022Z,1014.59
2019-02-28T01:28:19.679Z,1014.61
2019-02-28T01:29:20.010Z,1014.58
2019-02-28T01:30:19.696Z,1014.58
2019-02-28T01:31:20.079Z,1014.59
2019-02-28T01:32:19.822Z,1014.59
2019-02-28T01:33:24.623Z,1014.58
2019-02-28T01:34:19.861Z,1014.55
2019-02-28T01:35:19.909Z,1014.60
2019-02-28T01:36:20.042Z,1014.57
2019-02-28T01:37:20.926Z,1014.57
2019-02-28T01:38:23.948Z,1014.58
2019-02-28T01:39:20.030Z,1014.55
2019-02-28T01:40:20.064Z,1014.59
2019-02-28T01:41:20.089Z,1014.55
2019-02-28T01:42:20.878Z,1014.52
2019-02-28T01:43:20.156Z,1014.57
2019-02-28T01:44:20.143Z,1014.56
2019-02-28T01:45:20.515Z,1014.53
2019-02-28T01:46:20.255Z,1014.54
2019-02-28T01:47:21.049Z,1014.57
2019-02-28T01:48:22.669Z,1014.54
2019-02-28T01:49:20.356Z,1014.54
2019-02-28T01:50:20.378Z,1014.56
2019-02-28T01:51:20.412Z,1014.58
2019-02-28T01:52:20.745Z,1014.54
2019-02-28T01:53:20.424Z,1014.55
2019-02-28T01:54:20.465Z,1014.51
2019-02-28T01:55:20.641Z,1014.49
2019-02-28T01:56:20.566Z,1014.47
2019-02-28T01:58:20.629Z,1014.46
2019-02-28T01:59:21.659Z,1014.47
2019-02-28T02:00:23.808Z,1014.50
2019-02-28T02:02:20.716Z,1014.45
2019-02-28T02:03:20.802Z,1014.44
2019-02-28T02:04:20.822Z,1014.43
2019-02-28T02:05:20.862Z,1014.44
2019-02-28T02:06:22.473Z,1014.41
2019-02-28T02:07:20.873Z,1014.39
2019-02-28T02:08:20.948Z,1014.40
2019-02-28T02:09:21.280Z,1014.40
2019-02-28T02:10:21.574Z,1014.33
2019-02-28T02:11:21.045Z,1014.33
2019-02-28T02:12:21.087Z,1014.33
2019-02-28T02:13:21.413Z,1014.28
2019-02-28T02:14:21.104Z,1014.30
2019-02-28T02:15:21.172Z,1014.26
2019-02-28T02:16:26.830Z,1014.30
2019-02-28T02:17:21.256Z,1014.28
2019-02-28T02:19:21.309Z,1014.20
2019-02-28T02:20:23.379Z,1014.23
2019-02-28T02:21:21.415Z,1014.15
2019-02-28T02:22:21.401Z,1014.13
2019-02-28T02:23:21.429Z,1014.12
2019-02-28T02:24:24.334Z,1014.15
2019-02-28T02:25:21.457Z,1014.10
2019-02-28T02:26:21.837Z,1014.10
2019-02-28T02:27:21.657Z,1014.08
2019-02-28T02:28:26.748Z,1014.07
2019-02-28T02:29:21.591Z,1014.03
2019-02-28T02:30:21.764Z,1013.99
2019-02-28T02:31:27.258Z,1014.01
2019-02-28T02:32:22.015Z,1013.99
2019-02-28T02:33:21.700Z,1014.02
2019-02-28T02:34:24.390Z,1013.98
2019-02-28T02:35:21.812Z,1013.97
2019-02-28T02:36:21.837Z,1013.90
2019-02-28T02:37:21.873Z,1013.92
2019-02-28T02:38:22.165Z,1013.90
2019-02-28T02:40:23.098Z,1013.86
2019-02-28T02:41:22.005Z,1013.83
2019-02-28T02:42:22.132Z,1013.84
2019-02-28T02:43:23.157Z,1013.77
2019-02-28T02:44:22.105Z,1013.79
2019-02-28T02:45:22.430Z,1013.74
2019-02-28T02:46:22.259Z,1013.71
2019-02-28T02:47:22.192Z,1013.69
2019-02-28T02:48:22.233Z,1013.67
2019-02-28T02:49:22.202Z,1013.67
2019-02-28T02:50:22.241Z,1013.63
2019-02-28T02:51:22.318Z,1013.64
2019-02-28T02:52:29.944Z,1013.61
2019-02-28T02:53:22.491Z,1013.62
2019-02-28T02:54:22.378Z,1013.61
2019-02-28T02:56:22.570Z,1013.57
2019-02-28T02:58:26.703Z,1013.54
2019-02-28T02:59:22.830Z,1013.55
2019-02-28T03:00:22.598Z,1013.54
2019-02-28T03:01:23.408Z,1013.54
2019-02-28T03:02:22.670Z,1013.54
2019-02-28T03:04:23.495Z,1013.54
2019-02-28T03:05:22.758Z,1013.51
2019-02-28T03:06:23.047Z,1013.51
2019-02-28T03:07:24.534Z,1013.53
2019-02-28T03:08:22.851Z,1013.49
2019-02-28T03:10:22.912Z,1013.54
2019-02-28T03:11:24.706Z,1013.55
2019-02-28T03:12:22.931Z,1013.58
2019-02-28T03:13:23.262Z,1013.57
2019-02-28T03:14:23.158Z,1013.59
2019-02-28T03:16:23.106Z,1013.60
2019-02-28T03:17:23.137Z,1013.61
2019-02-28T03:18:23.123Z,1013.64
2019-02-28T03:19:23.223Z,1013.61
2019-02-28T03:20:23.533Z,1013.64
2019-02-28T03:21:23.269Z,1013.62
2019-02-28T03:22:28.357Z,1013.63
2019-02-28T03:23:23.327Z,1013.60
2019-02-28T03:24:23.380Z,1013.64
2019-02-28T03:25:27.716Z,1013.64
2019-02-28T03:26:23.379Z,1013.61
2019-02-28T03:27:23.757Z,1013.63
2019-02-28T03:28:23.493Z,1013.62
2019-02-28T03:29:23.534Z,1013.62
2019-02-28T03:30:31.249Z,1013.60
2019-02-28T03:31:23.552Z,1013.58
2019-02-28T03:32:23.625Z,1013.55
2019-02-28T03:34:23.684Z,1013.48
2019-02-28T03:35:24.072Z,1013.51
2019-02-28T03:36:23.689Z,1013.51
2019-02-28T03:37:23.772Z,1013.49
2019-02-28T03:38:23.910Z,1013.44
2019-02-28T03:39:25.614Z,1013.50
2019-02-28T03:40:23.865Z,1013.49
2019-02-28T03:41:23.844Z,1013.48
2019-02-28T03:42:28.544Z,1013.55
2019-02-28T03:43:23.913Z,1013.55
2019-02-28T03:44:23.995Z,1013.57
2019-02-28T03:45:24.031Z,1013.55
2019-02-28T03:46:24.056Z,1013.57
2019-02-28T03:47:24.231Z,1013.58
2019-02-28T03:48:24.074Z,1013.53
2019-02-28T03:49:24.395Z,1013.55
2019-02-28T03:50:24.190Z,1013.54
2019-02-28T03:51:28.428Z,1013.51
2019-02-28T03:52:24.410Z,1013.52
2019-02-28T03:53:24.229Z,1013.44
2019-02-28T03:54:24.261Z,1013.43
2019-02-28T03:55:24.284Z,1013.46
2019-02-28T03:56:24.673Z,1013.46
2019-02-28T03:57:29.447Z,1013.43
2019-02-28T03:58:24.382Z,1013.44
2019-02-28T03:59:24.474Z,1013.46
2019-02-28T04:00:24.508Z,1013.42
2019-02-28T04:01:24.534Z,1013.39
2019-02-28T04:02:24.579Z,1013.38
2019-02-28T04:03:24.894Z,1013.37
2019-02-28T04:04:24.593Z,1013.38
2019-02-28T04:05:28.027Z,1013.43
2019-02-28T04:06:24.725Z,1013.39
2019-02-28T04:07:24.742Z,1013.41
2019-02-28T04:08:29.444Z,1013.40
2019-02-28T04:09:24.781Z,1013.40
2019-02-28T04:10:25.073Z,1013.38
2019-02-28T04:11:30.513Z,1013.35
2019-02-28T04:12:24.885Z,1013.32
2019-02-28T04:13:24.904Z,1013.30
2019-02-28T04:14:28.555Z,1013.31
2019-02-28T04:15:25.036Z,1013.33
2019-02-28T04:16:24.960Z,1013.35
2019-02-28T04:17:30.105Z,1013.35
2019-02-28T04:18:25.066Z,1013.31
2019-02-28T04:19:25.108Z,1013.33
2019-02-28T04:20:25.086Z,1013.34
2019-02-28T04:21:25.161Z,1013.36
2019-02-28T04:23:25.218Z,1013.31
2019-02-28T04:24:25.590Z,1013.30
2019-02-28T04:25:25.284Z,1013.31
2019-02-28T04:26:29.715Z,1013.28
2019-02-28T04:27:25.343Z,1013.30
2019-02-28T04:28:33.255Z,1013.34
2019-02-28T04:29:30.043Z,1013.36
2019-02-28T04:30:25.441Z,1013.35
2019-02-28T04:31:25.771Z,1013.34
2019-02-28T04:32:27.684Z,1013.34
2019-02-28T04:33:25.477Z,1013.32
2019-02-28T04:34:25.559Z,1013.34
2019-02-28T04:35:25.581Z,1013.34
2019-02-28T04:36:25.580Z,1013.35
2019-02-28T04:37:25.905Z,1013.31
2019-02-28T04:38:25.692Z,1013.30
2019-02-28T04:39:25.744Z,1013.29
2019-02-28T04:40:26.997Z,1013.28
2019-02-28T04:41:25.790Z,1013.30
2019-02-28T04:42:25.760Z,1013.31
2019-02-28T04:43:26.148Z,1013.31
2019-02-28T04:44:25.893Z,1013.32
2019-02-28T04:45:26.126Z,1013.32
2019-02-28T04:46:28.319Z,1013.35
2019-02-28T04:47:25.971Z,1013.32
2019-02-28T04:48:26.042Z,1013.26
2019-02-28T04:49:26.332Z,1013.27
2019-02-28T04:50:31.199Z,1013.26
2019-02-28T04:51:26.095Z,1013.21
2019-02-28T04:52:26.224Z,1013.24
2019-02-28T04:53:26.261Z,1013.18
2019-02-28T04:54:27.908Z,1013.13
2019-02-28T04:55:26.225Z,1013.13
2019-02-28T04:56:26.560Z,1013.14
2019-02-28T04:57:26.237Z,1013.16
2019-02-28T04:58:26.419Z,1013.11
2019-02-28T04:59:26.348Z,1013.10
2019-02-28T05:00:26.376Z,1013.13
2019-02-28T05:01:26.389Z,1013.12
2019-02-28T05:02:26.445Z,1013.15
2019-02-28T05:03:29.021Z,1013.19
2019-02-28T05:04:26.527Z,1013.16
2019-02-28T05:05:26.537Z,1013.18
2019-02-28T05:07:29.644Z,1013.20
2019-02-28T05:09:26.614Z,1013.22
2019-02-28T05:10:27.025Z,1013.19
2019-02-28T05:11:27.418Z,1013.21
2019-02-28T05:12:26.763Z,1013.26
2019-02-28T05:13:26.739Z,1013.22
2019-02-28T05:14:26.776Z,1013.20
2019-02-28T05:15:26.801Z,1013.20
2019-02-28T05:16:26.879Z,1013.16
2019-02-28T05:17:27.161Z,1013.18
2019-02-28T05:18:27.572Z,1013.18
2019-02-28T05:19:26.979Z,1013.20
2019-02-28T05:20:27.007Z,1013.17
2019-02-28T05:21:26.986Z,1013.18
2019-02-28T05:22:27.588Z,1013.22
2019-02-28T05:23:27.051Z,1013.18
2019-02-28T05:24:27.427Z,1013.20
2019-02-28T05:25:27.113Z,1013.15
2019-02-28T05:26:27.145Z,1013.13
2019-02-28T05:27:27.176Z,1013.19
2019-02-28T05:28:27.256Z,1013.16
2019-02-28T05:29:27.251Z,1013.18
2019-02-28T05:30:27.275Z,1013.16
2019-02-28T05:31:28.064Z,1013.14
2019-02-28T05:32:27.382Z,1013.11
2019-02-28T05:33:27.418Z,1013.08
2019-02-28T05:34:27.397Z,1013.11
2019-02-28T05:35:27.784Z,1013.09
2019-02-28T05:36:27.456Z,1013.11
2019-02-28T05:37:27.556Z,1013.09
2019-02-28T05:38:27.824Z,1013.10
2019-02-28T05:39:28.241Z,1013.06
2019-02-28T05:40:27.638Z,1013.06
2019-02-28T05:41:27.609Z,1013.04
2019-02-28T05:42:27.640Z,1013.01
2019-02-28T05:43:29.168Z,1013.03
2019-02-28T05:44:27.752Z,1013.02
2019-02-28T05:45:28.047Z,1013.06
2019-02-28T05:46:27.767Z,1013.08
2019-02-28T05:47:29.403Z,1013.09
2019-02-28T05:48:27.831Z,1013.11
2019-02-28T05:49:27.913Z,1013.07
2019-02-28T05:50:27.949Z,1013.09
2019-02-28T05:51:27.983Z,1013.05
2019-02-28T05:52:30.564Z,1013.06
2019-02-28T05:53:28.039Z,1013.04
2019-02-28T05:54:28.171Z,1013.06
2019-02-28T05:55:28.102Z,1013.02
2019-02-28T05:58:28.298Z,1013.02
2019-02-28T05:59:28.533Z,1012.99
2019-02-28T06:00:28.260Z,1013.05
2019-02-28T06:02:28.325Z,1013.08
2019-02-28T06:03:29.564Z,1013.08
2019-02-28T06:04:28.428Z,1013.06
2019-02-28T06:05:28.413Z,1013.07
2019-02-28T06:06:28.694Z,1013.06
2019-02-28T06:07:28.829Z,1013.07
2019-02-28T06:08:28.505Z,1013.05
2019-02-28T06:09:28.484Z,1013.03
2019-02-28T06:10:28.517Z,1013.02
2019-02-28T06:11:34.529Z,1012.97
2019-02-28T06:12:28.595Z,1012.96
2019-02-28T06:13:28.908Z,1012.95
2019-02-28T06:14:28.653Z,1012.91
2019-02-28T06:15:29.057Z,1012.88
2019-02-28T06:16:28.706Z,1012.89
2019-02-28T06:17:28.743Z,1012.92
2019-02-28T06:18:32.681Z,1012.89
2019-02-28T06:19:28.852Z,1012.92
2019-02-28T06:21:28.860Z,1012.93
2019-02-28T06:22:30.534Z,1012.93
2019-02-28T06:23:28.973Z,1012.96
2019-02-28T06:24:29.020Z,1012.93
2019-02-28T06:25:29.008Z,1012.91
2019-02-28T06:26:31.898Z,1012.91
2019-02-28T06:27:29.409Z,1012.89
2019-02-28T06:28:31.149Z,1012.91
2019-02-28T06:29:29.226Z,1012.90
2019-02-28T06:30:29.199Z,1012.88
2019-02-28T06:31:29.241Z,1012.85
2019-02-28T06:32:29.558Z,1012.89
2019-02-28T06:33:30.549Z,1012.88
2019-02-28T06:35:29.361Z,1012.93
2019-02-28T06:36:29.919Z,1012.94
2019-02-28T06:37:29.508Z,1012.96
2019-02-28T06:38:29.799Z,1012.97
2019-02-28T06:39:29.484Z,1012.94
2019-02-28T06:40:32.659Z,1012.96
2019-02-28T06:42:29.571Z,1012.99
2019-02-28T06:43:29.560Z,1012.97
2019-02-28T06:44:29.628Z,1012.95
2019-02-28T06:45:29.959Z,1012.98
2019-02-28T06:46:29.705Z,1012.98
2019-02-28T06:47:29.731Z,1013.00
2019-02-28T06:48:29.707Z,1012.99
2019-02-28T06:49:30.152Z,1013.04
2019-02-28T06:50:29.849Z,1013.00
2019-02-28T06:51:29.867Z,1013.06
2019-02-28T06:52:29.928Z,1013.01
2019-02-28T06:53:30.768Z,1013.02
2019-02-28T06:54:29.890Z,1013.04
2019-02-28T06:55:29.922Z,1012.97
2019-02-28T06:56:30.846Z,1012.98
2019-02-28T06:57:30.038Z,1012.94
2019-02-28T06:59:30.112Z,1013.01
2019-02-28T07:00:30.081Z,1012.99
2019-02-28T07:01:30.154Z,1013.02
2019-02-28T07:02:31.411Z,1013.01
2019-02-28T07:03:30.217Z,1013.03
2019-02-28T07:04:30.508Z,1013.06
2019-02-28T07:05:30.236Z,1013.05
2019-02-28T07:06:30.306Z,1013.02
2019-02-28T07:07:30.299Z,1012.97
2019-02-28T07:08:30.378Z,1012.96
2019-02-28T07:09:33.578Z,1012.98
2019-02-28T07:10:30.441Z,1012.96
2019-02-28T07:11:30.774Z,1012.95
2019-02-28T07:12:30.564Z,1013.00
2019-02-28T07:14:30.561Z,1012.94
2019-02-28T07:15:30.591Z,1013.01
2019-02-28T07:16:34.530Z,1013.00
2019-02-28T07:17:30.661Z,1012.99
2019-02-28T07:18:30.688Z,1012.94
2019-02-28T07:19:30.874Z,1012.94
2019-02-28T07:20:30.699Z,1012.90
2019-02-28T07:21:30.724Z,1012.93
2019-02-28T07:22:30.761Z,1012.86
2019-02-28T07:23:31.143Z,1012.85
2019-02-28T07:24:30.870Z,1012.81
2019-02-28T07:25:30.901Z,1012.86
2019-02-28T07:26:30.909Z,1012.84
2019-02-28T07:27:30.970Z,1012.84
2019-02-28T07:28:36.299Z,1012.84
2019-02-28T07:29:32.110Z,1012.88
2019-02-28T07:30:31.063Z,1012.87
2019-02-28T07:31:31.038Z,1012.94
2019-02-28T07:32:31.325Z,1012.93
2019-02-28T07:33:31.161Z,1012.92
2019-02-28T07:34:31.133Z,1012.90
2019-02-28T07:35:34.198Z,1012.92
2019-02-28T07:36:31.203Z,1012.88
2019-02-28T07:37:31.376Z,1012.89
2019-02-28T07:38:31.321Z,1012.91
2019-02-28T07:39:31.336Z,1012.93
2019-02-28T07:40:33.230Z,1012.95
2019-02-28T07:41:31.652Z,1012.94
2019-02-28T07:42:33.655Z,1012.96
2019-02-28T07:43:31.494Z,1013.00
2019-02-28T07:44:31.502Z,1013.01
2019-02-28T07:45:33.122Z,1012.98
2019-02-28T07:46:31.564Z,1013.01
2019-02-28T07:47:31.550Z,1013.02
2019-02-28T07:48:31.617Z,1013.02
2019-02-28T07:49:35.837Z,1013.04
2019-02-28T07:51:31.681Z,1013.07
2019-02-28T07:52:33.528Z,1013.05
2019-02-28T07:53:31.780Z,1013.09
2019-02-28T07:54:31.774Z,1013.07
2019-02-28T07:55:31.786Z,1013.06
2019-02-28T07:56:31.873Z,1013.06
2019-02-28T07:57:31.855Z,1013.05
2019-02-28T07:58:33.435Z,1013.03
2019-02-28T07:59:31.912Z,1013.02
2019-02-28T08:00:32.299Z,1012.96
2019-02-28T08:01:31.979Z,1012.93
2019-02-28T08:02:32.064Z,1012.93
2019-02-28T08:03:32.087Z,1012.98
2019-02-28T08:04:32.120Z,1012.98
2019-02-28T08:05:32.151Z,1012.93
2019-02-28T08:06:32.138Z,1012.93
2019-02-28T08:07:32.215Z,1012.95
2019-02-28T08:08:32.248Z,1012.94
2019-02-28T08:09:32.372Z,1013.03
2019-02-28T08:10:32.257Z,1013.02
2019-02-28T08:11:32.437Z,1012.98
2019-02-28T08:12:32.624Z,1012.96
2019-02-28T08:13:34.654Z,1012.96
2019-02-28T08:14:32.434Z,1012.94
2019-02-28T08:15:32.462Z,1012.95
2019-02-28T08:16:34.071Z,1012.92
2019-02-28T08:17:32.535Z,1012.91
2019-02-28T08:18:32.522Z,1012.89
2019-02-28T08:19:32.946Z,1012.89
2019-02-28T08:20:34.034Z,1012.90
2019-02-28T08:21:32.660Z,1012.86
2019-02-28T08:22:32.638Z,1012.86
2019-02-28T08:23:32.719Z,1012.83
2019-02-28T08:24:35.860Z,1012.79
2019-02-28T08:25:32.783Z,1012.82
2019-02-28T08:27:32.853Z,1012.83
2019-02-28T08:28:36.795Z,1012.83
2019-02-28T08:30:32.938Z,1012.83
2019-02-28T08:31:33.081Z,1012.82
2019-02-28T08:32:33.942Z,1012.81
2019-02-28T08:33:32.981Z,1012.79
2019-02-28T08:34:33.016Z,1012.78
2019-02-28T08:35:34.825Z,1012.72
2019-02-28T08:36:33.119Z,1012.67
2019-02-28T08:37:33.106Z,1012.66
2019-02-28T08:38:34.214Z,1012.66
2019-02-28T08:40:33.201Z,1012.66
2019-02-28T08:41:33.289Z,1012.63
2019-02-28T08:42:38.449Z,1012.69
2019-02-28T08:43:33.350Z,1012.69
2019-02-28T08:44:33.375Z,1012.72
2019-02-28T08:45:34.428Z,1012.72
2019-02-28T08:46:33.388Z,1012.75
2019-02-28T08:47:33.464Z,1012.72
2019-02-28T08:48:34.917Z,1012.76
2019-02-28T08:49:33.981Z,1012.75
2019-02-28T08:50:33.508Z,1012.76
2019-02-28T08:51:33.857Z,1012.78
2019-02-28T08:52:33.587Z,1012.76
2019-02-28T08:53:33.865Z,1012.75
2019-02-28T08:54:33.642Z,1012.75
2019-02-28T08:55:33.741Z,1012.74
2019-02-28T08:56:33.750Z,1012.76
2019-02-28T08:57:33.756Z,1012.74
2019-02-28T08:58:33.826Z,1012.75
2019-02-28T08:59:33.852Z,1012.80
2019-02-28T09:00:33.833Z,1012.79
2019-02-28T09:01:33.906Z,1012.74
2019-02-28T09:02:33.890Z,1012.78
2019-02-28T09:03:33.969Z,1012.72
2019-02-28T09:04:40.936Z,1012.74
2019-02-28T09:05:34.050Z,1012.73
2019-02-28T09:06:34.018Z,1012.72
2019-02-28T09:07:34.215Z,1012.72
2019-02-28T09:08:34.086Z,1012.67
2019-02-28T09:09:35.310Z,1012.65
2019-02-28T09:10:34.196Z,1012.62
2019-02-28T09:11:34.232Z,1012.65
2019-02-28T09:12:34.209Z,1012.66
2019-02-28T09:13:34.291Z,1012.65
2019-02-28T09:14:34.347Z,1012.61
2019-02-28T09:15:34.300Z,1012.62
2019-02-28T09:16:36.677Z,1012.57
2019-02-28T09:17:34.371Z,1012.62
2019-02-28T09:18:34.553Z,1012.61
2019-02-28T09:19:35.983Z,1012.58
2019-02-28T09:21:34.553Z,1012.53
2019-02-28T09:22:34.523Z,1012.51
2019-02-28T09:23:37.581Z,1012.47
2019-02-28T09:25:34.624Z,1012.44
2019-02-28T09:27:35.266Z,1012.45
2019-02-28T09:28:34.763Z,1012.47
2019-02-28T09:29:34.794Z,1012.41
2019-02-28T09:30:34.829Z,1012.43
2019-02-28T09:31:38.710Z,1012.38
2019-02-28T09:32:34.897Z,1012.37
2019-02-28T09:33:34.939Z,1012.35
2019-02-28T09:34:35.258Z,1012.32
2019-02-28T09:36:34.972Z,1012.43
2019-02-28T09:37:35.068Z,1012.42
2019-02-28T09:38:35.082Z,1012.39
2019-02-28T09:39:35.232Z,1012.39
2019-02-28T09:40:35.446Z,1012.40
2019-02-28T09:41:36.375Z,1012.40
2019-02-28T09:42:35.175Z,1012.40
2019-02-28T09:43:35.250Z,1012.38
2019-02-28T09:44:35.289Z,1012.34
2019-02-28T09:46:35.339Z,1012.35
2019-02-28T09:47:35.778Z,1012.31
2019-02-28T09:48:37.304Z,1012.36
2019-02-28T09:49:35.440Z,1012.33
2019-02-28T09:50:35.569Z,1012.36
2019-02-28T09:51:35.516Z,1012.31
2019-02-28T09:52:41.228Z,1012.36
2019-02-28T09:53:35.581Z,1012.32
2019-02-28T09:54:35.850Z,1012.39
2019-02-28T09:55:35.628Z,1012.38
2019-02-28T09:56:35.608Z,1012.41
2019-02-28T09:57:35.648Z,1012.39
2019-02-28T09:58:35.725Z,1012.42
2019-02-28T09:59:37.799Z,1012.44
2019-02-28T10:00:35.815Z,1012.43
2019-02-28T10:01:36.072Z,1012.42
2019-02-28T10:02:35.883Z,1012.37
2019-02-28T10:03:35.862Z,1012.32
2019-02-28T10:04:35.983Z,1012.33
2019-02-28T10:05:39.034Z,1012.33
2019-02-28T10:06:36.067Z,1012.40
2019-02-28T10:07:35.961Z,1012.35
2019-02-28T10:08:36.622Z,1012.41
2019-02-28T10:09:36.095Z,1012.35
2019-02-28T10:10:36.074Z,1012.43
2019-02-28T10:11:36.156Z,1012.40
2019-02-28T10:12:36.126Z,1012.39
2019-02-28T10:13:36.160Z,1012.42
2019-02-28T10:14:36.235Z,1012.40
2019-02-28T10:15:38.689Z,1012.34
2019-02-28T10:16:36.247Z,1012.35
2019-02-28T10:17:36.286Z,1012.31
2019-02-28T10:18:38.909Z,1012.29
2019-02-28T10:19:44.787Z,1012.32
2019-02-28T10:20:36.386Z,1012.31
2019-02-28T10:21:39.514Z,1012.32
2019-02-28T10:23:36.524Z,1012.39
2019-02-28T10:24:36.564Z,1012.43
2019-02-28T10:25:40.115Z,1012.38
2019-02-28T10:26:36.579Z,1012.34
2019-02-28T10:27:36.657Z,1012.34
2019-02-28T10:29:38.450Z,1012.38
2019-02-28T10:30:37.195Z,1012.41
2019-02-28T10:31:38.483Z,1012.43
2019-02-28T10:33:36.843Z,1012.42
2019-02-28T10:34:37.150Z,1012.53
2019-02-28T10:35:37.707Z,1012.54
2019-02-28T10:36:36.942Z,1012.49
2019-02-28T10:37:36.929Z,1012.53
2019-02-28T10:39:37.001Z,1012.53
2019-02-28T10:41:37.407Z,1012.54
2019-02-28T10:43:37.177Z,1012.50
2019-02-28T10:44:37.159Z,1012.52
2019-02-28T10:45:41.230Z,1012.52
2019-02-28T10:46:37.216Z,1012.50
2019-02-28T10:48:41.864Z,1012.50
2019-02-28T10:49:37.320Z,1012.49
2019-02-28T10:50:37.395Z,1012.51
2019-02-28T10:51:37.448Z,1012.50
2019-02-28T10:52:37.417Z,1012.54
2019-02-28T10:54:37.538Z,1012.46
2019-02-28T10:55:37.567Z,1012.46
2019-02-28T10:56:39.081Z,1012.38
2019-02-28T10:57:40.603Z,1012.41
2019-02-28T10:58:37.611Z,1012.50
2019-02-28T10:59:37.639Z,1012.53
2019-02-28T11:00:37.728Z,1012.54
2019-02-28T11:01:41.453Z,1012.47
2019-02-28T11:02:37.746Z,1012.51
2019-02-28T11:03:37.834Z,1012.51
2019-02-28T11:04:42.851Z,1012.57
2019-02-28T11:05:38.142Z,1012.57
2019-02-28T11:06:37.871Z,1012.59
2019-02-28T11:07:38.666Z,1012.51
2019-02-28T11:08:37.930Z,1012.55
2019-02-28T11:09:38.022Z,1012.54
2019-02-28T11:10:38.012Z,1012.52
2019-02-28T11:11:38.041Z,1012.53
2019-02-28T11:12:38.129Z,1012.47
2019-02-28T11:14:38.696Z,1012.51
2019-02-28T11:15:38.216Z,1012.44
2019-02-28T11:16:38.251Z,1012.44
2019-02-28T11:17:38.337Z,1012.36
2019-02-28T11:19:38.317Z,1012.38
2019-02-28T11:20:38.370Z,1012.33
2019-02-28T11:21:38.370Z,1012.32
2019-02-28T11:22:39.888Z,1012.27
2019-02-28T11:23:38.498Z,1012.25
2019-02-28T11:24:38.850Z,1012.23
2019-02-28T11:25:38.620Z,1012.24
2019-02-28T11:28:38.639Z,1012.24
2019-02-28T11:29:38.667Z,1012.22
2019-02-28T11:30:44.030Z,1012.21
2019-02-28T11:31:38.736Z,1012.17
2019-02-28T11:32:38.773Z,1012.25
2019-02-28T11:33:39.663Z,1012.26
2019-02-28T11:35:38.941Z,1012.19
2019-02-28T11:36:38.894Z,1012.22
2019-02-28T11:38:38.987Z,1012.28
2019-02-28T11:39:39.000Z,1012.25
2019-02-28T11:40:40.501Z,1012.24
2019-02-28T11:41:39.007Z,1012.24
2019-02-28T11:42:39.042Z,1012.19
2019-02-28T11:43:39.069Z,1012.25
2019-02-28T11:44:39.155Z,1012.26
2019-02-28T11:45:39.141Z,1012.23
2019-02-28T11:46:39.234Z,1012.23
2019-02-28T11:47:39.255Z,1012.22
2019-02-28T11:48:39.302Z,1012.16
2019-02-28T11:49:39.266Z,1012.15
2019-02-28T11:50:42.451Z,1012.24
2019-02-28T11:51:39.381Z,1012.26
2019-02-28T11:54:39.479Z,1012.22
2019-02-28T11:55:39.837Z,1012.24
2019-02-28T11:56:39.521Z,1012.14
2019-02-28T11:57:41.198Z,1012.13
2019-02-28T11:58:39.599Z,1012.21
2019-02-28T11:59:39.673Z,1012.21
2019-02-28T12:00:39.674Z,1012.19
2019-02-28T12:01:42.886Z,1012.23
2019-02-28T12:02:39.988Z,1012.22
2019-02-28T12:03:39.791Z,1012.28
2019-02-28T12:04:40.488Z,1012.25
2019-02-28T12:05:39.808Z,1012.25
2019-02-28T12:06:39.884Z,1012.32
2019-02-28T12:07:39.903Z,1012.33
2019-02-28T12:08:41.604Z,1012.33
2019-02-28T12:09:39.921Z,1012.35
2019-02-28T12:10:39.963Z,1012.37
2019-02-28T12:11:40.032Z,1012.33
2019-02-28T12:12:41.563Z,1012.37
2019-02-28T12:13:40.054Z,1012.30
2019-02-28T12:14:40.127Z,1012.28
2019-02-28T12:15:40.418Z,1012.25
2019-02-28T12:16:40.144Z,1012.25
2019-02-28T12:17:40.173Z,1012.25
2019-02-28T12:18:41.000Z,1012.27
2019-02-28T12:20:40.331Z,1012.21
2019-02-28T12:21:40.311Z,1012.20
2019-02-28T12:23:40.426Z,1012.19
2019-02-28T12:24:40.455Z,1012.22
2019-02-28T12:25:42.816Z,1012.09
2019-02-28T12:26:40.529Z,1012.18
2019-02-28T12:27:40.557Z,1012.18
2019-02-28T12:28:40.592Z,1012.16
2019-02-28T12:29:40.569Z,1012.17
2019-02-28T12:30:40.672Z,1012.17
2019-02-28T12:31:40.692Z,1012.17
2019-02-28T12:32:43.499Z,1012.20
2019-02-28T12:33:41.007Z,1012.20
2019-02-28T12:34:40.733Z,1012.25
2019-02-28T12:36:40.808Z,1012.31
2019-02-28T12:37:40.890Z,1012.29
2019-02-28T12:38:40.922Z,1012.27
2019-02-28T12:39:40.953Z,1012.31
2019-02-28T12:40:42.602Z,1012.30
2019-02-28T12:41:40.960Z,1012.30
2019-02-28T12:42:41.048Z,1012.34
2019-02-28T12:43:41.544Z,1012.37
2019-02-28T12:44:41.119Z,1012.40
2019-02-28T12:45:41.150Z,1012.41
2019-02-28T12:46:43.321Z,1012.45
2019-02-28T12:47:41.536Z,1012.49
2019-02-28T12:48:41.253Z,1012.51
2019-02-28T12:49:41.291Z,1012.53
2019-02-28T12:50:41.306Z,1012.53
2019-02-28T12:51:41.343Z,1012.50
2019-02-28T12:52:41.383Z,1012.64
2019-02-28T12:55:41.472Z,1012.61
2019-02-28T12:56:41.458Z,1012.61
2019-02-28T12:57:41.542Z,1012.58
2019-02-28T12:58:41.769Z,1012.62
2019-02-28T13:00:41.593Z,1012.75